Time;durP1;ratioP1;P1;durP2;ratioP2;P2;SDS_P1;SDS_P2;PMS_P1;PMS_P2;Temp;Humidity;BMP_temperature;BMP_pressure;BME280_temperature;BME280_humidity;BME280_pressure;Samples;Min_cycle;Max_cycle;Signal;HPM_P1;HPM_P2
2023/12/25 00:00:13;;;;;;;3.33;3.03;;;11.70;76.30;;;;;;5094555;28;20184;-85
2023/12/25 00:02:39;;;;;;;3.93;2.77;;;11.70;76.30;;;;;;5110339;28;20200;-85
2023/12/25 00:05:05;;;;;;;3.93;2.70;;;11.70;76.50;;;;;;5094857;28;20191;-84
2023/12/25 00:07:30;;;;;;;3.60;2.60;;;11.70;76.50;;;;;;5094651;28;20199;-84
2023/12/25 00:09:56;;;;;;;4.33;2.77;;;11.70;76.60;;;;;;5086397;28;20637;-84
2023/12/25 00:12:23;;;;;;;3.67;2.67;;;11.70;76.50;;;;;;5106981;28;20223;-84
2023/12/25 00:14:48;;;;;;;4.33;3.00;;;11.80;76.70;;;;;;5089408;28;20187;-85
2023/12/25 00:17:15;;;;;;;2.87;2.67;;;11.80;76.50;;;;;;5090520;28;20175;-85
2023/12/25 00:19:41;;;;;;;3.40;2.73;;;11.90;76.50;;;;;;5111765;28;20176;-84
2023/12/25 00:22:07;;;;;;;4.00;2.90;;;11.80;76.40;;;;;;5084507;28;20697;-85
2023/12/25 00:24:33;;;;;;;2.80;2.50;;;11.90;76.60;;;;;;5107767;28;20200;-85
2023/12/25 00:26:58;;;;;;;2.83;2.53;;;11.90;76.70;;;;;;5110626;28;20176;-85
2023/12/25 00:29:24;;;;;;;3.20;2.90;;;11.90;76.90;;;;;;5087795;28;20175;-84
2023/12/25 00:31:49;;;;;;;3.20;2.90;;;11.80;76.90;;;;;;5093009;28;20195;-84
2023/12/25 00:34:15;;;;;;;3.50;3.10;;;11.80;77.90;;;;;;5089595;28;20568;-84
2023/12/25 00:36:41;;;;;;;4.53;3.00;;;11.80;77.30;;;;;;5105139;28;20207;-84
2023/12/25 00:39:07;;;;;;;5.23;2.90;;;11.80;77.30;;;;;;5090847;28;20176;-84
2023/12/25 00:41:33;;;;;;;4.07;3.17;;;11.90;77.50;;;;;;5081512;28;20249;-84
2023/12/25 00:43:59;;;;;;;4.17;3.70;;;11.90;77.60;;;;;;5086270;28;20274;-85
2023/12/25 00:46:25;;;;;;;3.40;3.10;;;11.90;77.60;;;;;;5090553;28;20184;-85
2023/12/25 00:48:50;;;;;;;4.80;3.20;;;11.90;77.50;;;;;;5103999;27;20184;-84
2023/12/25 00:51:16;;;;;;;3.80;3.40;;;12.00;77.70;;;;;;5111544;28;20176;-84
2023/12/25 00:53:41;;;;;;;3.07;2.77;;;12.00;77.70;;;;;;5106078;28;20189;-84
2023/12/25 00:56:08;;;;;;;4.33;3.00;;;12.10;77.80;;;;;;5087742;28;20653;-82
2023/12/25 00:58:34;;;;;;;3.20;2.77;;;12.10;77.50;;;;;;5089888;28;20200;-82
2023/12/25 01:00:59;;;;;;;3.87;3.20;;;12.10;77.20;;;;;;5108288;28;20206;-82
2023/12/25 01:03:25;;;;;;;3.47;3.17;;;12.20;77.30;;;;;;5089842;28;20180;-82
2023/12/25 01:05:51;;;;;;;3.70;3.33;;;12.20;77.20;;;;;;5087074;28;20211;-81
2023/12/25 01:08:16;;;;;;;3.60;3.30;;;12.20;77.20;;;;;;5091569;28;20549;-82
2023/12/25 01:10:42;;;;;;;6.20;3.43;;;12.20;77.30;;;;;;5111097;28;20191;-82
2023/12/25 01:13:07;;;;;;;5.30;3.47;;;12.20;77.50;;;;;;5093204;28;20184;-82
2023/12/25 01:15:33;;;;;;;3.70;3.40;;;12.20;77.70;;;;;;5092634;28;20184;-82
2023/12/25 01:17:59;;;;;;;4.20;3.80;;;12.40;77.90;;;;;;5093639;28;20171;-82
2023/12/25 01:20:25;;;;;;;4.00;3.60;;;12.30;77.70;;;;;;5087914;28;20179;-82
2023/12/25 01:22:51;;;;;;;4.10;3.30;;;12.30;77.80;;;;;;5087716;28;20183;-82
2023/12/25 01:25:16;;;;;;;4.03;3.63;;;12.30;77.80;;;;;;5093816;28;20183;-82
2023/12/25 01:27:42;;;;;;;3.50;3.20;;;12.30;77.80;;;;;;5110041;28;20187;-82
2023/12/25 01:30:10;;;;;;;3.17;2.87;;;12.30;77.80;;;;;;5093226;28;20526;-82
2023/12/25 01:32:35;;;;;;;4.93;2.77;;;12.30;77.80;;;;;;5103067;28;20184;-82
2023/12/25 01:35:01;;;;;;;2.90;2.67;;;12.30;77.80;;;;;;5088981;28;20180;-82
2023/12/25 01:37:27;;;;;;;2.37;2.03;;;12.30;77.80;;;;;;5089258;28;20647;-82
2023/12/25 01:39:52;;;;;;;2.83;2.23;;;12.20;77.50;;;;;;5108265;28;20268;-82
2023/12/25 01:42:18;;;;;;;1.90;1.70;;;12.20;77.30;;;;;;5109222;28;20204;-82
2023/12/25 01:44:46;;;;;;;1.60;1.50;;;12.20;77.20;;;;;;5105311;28;20188;-82
2023/12/25 01:47:12;;;;;;;1.63;1.43;;;12.30;77.00;;;;;;5087734;28;20540;-82
2023/12/25 01:49:38;;;;;;;1.47;1.37;;;12.30;76.90;;;;;;5082353;28;20192;-82
2023/12/25 01:52:04;;;;;;;1.40;1.30;;;12.40;76.70;;;;;;5092156;28;20199;-82
2023/12/25 01:54:30;;;;;;;1.93;1.50;;;12.30;76.10;;;;;;5107206;28;20210;-82
2023/12/25 01:56:56;;;;;;;1.50;1.40;;;12.30;75.80;;;;;;5083578;28;20180;-82
2023/12/25 01:59:22;;;;;;;1.57;1.47;;;12.30;75.90;;;;;;5104685;28;20649;-82
2023/12/25 02:01:47;;;;;;;2.30;1.60;;;12.20;75.40;;;;;;5088175;28;20208;-82
2023/12/25 02:04:13;;;;;;;2.60;1.57;;;12.20;75.30;;;;;;5083475;28;20448;-82
2023/12/25 02:06:39;;;;;;;1.50;1.30;;;12.30;75.60;;;;;;5092906;28;20171;-82
2023/12/25 02:09:04;;;;;;;2.80;1.63;;;12.20;75.20;;;;;;5087525;28;20188;-82
2023/12/25 02:11:30;;;;;;;2.60;1.60;;;12.20;75.30;;;;;;5087431;28;20653;-82
2023/12/25 02:13:57;;;;;;;1.90;1.70;;;12.30;75.50;;;;;;5091233;28;20687;-82
2023/12/25 02:16:23;;;;;;;2.90;1.70;;;12.30;75.40;;;;;;5107309;28;20179;-82
2023/12/25 02:18:51;;;;;;;1.80;1.40;;;12.30;75.50;;;;;;5092338;28;20179;-82
2023/12/25 02:21:16;;;;;;;1.97;1.63;;;12.30;76.20;;;;;;5108585;28;20206;-82
2023/12/25 02:23:44;;;;;;;2.63;1.87;;;12.30;75.60;;;;;;5105546;28;20591;-82
2023/12/25 02:26:10;;;;;;;1.93;1.70;;;12.40;75.90;;;;;;5092743;28;20187;-82
2023/12/25 02:28:36;;;;;;;2.77;1.73;;;12.30;75.80;;;;;;5098733;28;20194;-82
2023/12/25 02:31:02;;;;;;;3.07;1.70;;;12.30;76.00;;;;;;5083273;28;20290;-82
2023/12/25 02:33:27;;;;;;;2.23;1.40;;;12.20;75.90;;;;;;5088794;28;20230;-82
2023/12/25 02:35:53;;;;;;;2.37;1.30;;;12.30;76.30;;;;;;5105034;28;20706;-84
2023/12/25 02:38:19;;;;;;;3.07;1.80;;;12.40;76.30;;;;;;5092074;28;20183;-84
2023/12/25 02:40:44;;;;;;;2.30;1.40;;;12.30;76.00;;;;;;5109854;28;20278;-84
2023/12/25 02:43:10;;;;;;;1.70;1.30;;;12.20;75.90;;;;;;5112472;28;20184;-85
2023/12/25 02:45:36;;;;;;;1.33;1.20;;;12.20;75.90;;;;;;5092987;28;20243;-84
2023/12/25 02:48:02;;;;;;;0.90;0.90;;;12.30;76.10;;;;;;5107776;28;20234;-84
2023/12/25 02:50:28;;;;;;;2.60;1.10;;;12.30;75.70;;;;;;5106012;28;20698;-84
2023/12/25 02:52:54;;;;;;;1.63;1.20;;;12.30;75.70;;;;;;5095390;28;20179;-84
2023/12/25 02:55:20;;;;;;;1.47;1.20;;;12.20;75.60;;;;;;5086757;28;20188;-84
2023/12/25 02:57:45;;;;;;;2.47;1.13;;;12.20;75.40;;;;;;5093497;28;20179;-85
2023/12/25 03:00:12;;;;;;;1.73;0.87;;;12.20;75.20;;;;;;5093105;28;20183;-84
2023/12/25 03:02:37;;;;;;;2.30;1.30;;;12.20;75.20;;;;;;5110197;28;20692;-84
2023/12/25 03:05:03;;;;;;;2.23;1.20;;;12.30;75.40;;;;;;5115736;27;20219;-84
2023/12/25 03:07:29;;;;;;;1.33;1.10;;;12.20;75.00;;;;;;5095145;28;20270;-84
2023/12/25 03:09:54;;;;;;;2.27;1.30;;;12.20;74.80;;;;;;5111397;28;20267;-84
2023/12/25 03:12:20;;;;;;;1.37;1.10;;;12.20;74.80;;;;;;5083645;28;20223;-84
2023/12/25 03:14:47;;;;;;;2.40;1.10;;;12.30;74.60;;;;;;5090763;28;20649;-85
2023/12/25 03:17:12;;;;;;;2.37;1.30;;;12.20;74.30;;;;;;5089841;28;20254;-84
2023/12/25 03:19:38;;;;;;;1.40;1.03;;;12.10;74.10;;;;;;5094911;28;20187;-84
2023/12/25 03:22:04;;;;;;;2.33;1.17;;;12.10;74.00;;;;;;5091101;28;20336;-85
2023/12/25 03:24:29;;;;;;;3.63;1.30;;;12.10;74.10;;;;;;5092623;28;20195;-84
2023/12/25 03:26:55;;;;;;;1.37;1.10;;;12.10;74.20;;;;;;5114052;27;20187;-85
2023/12/25 03:29:21;;;;;;;4.97;1.20;;;12.10;73.80;;;;;;5109945;28;20191;-85
2023/12/25 03:31:46;;;;;;;2.43;1.20;;;12.20;73.90;;;;;;5111270;28;20222;-84
2023/12/25 03:34:18;;;;;;;1.37;0.87;;;12.10;73.60;;;;;;5086829;28;20184;-84
2023/12/25 03:36:44;;;;;;;4.80;1.33;;;12.20;73.90;;;;;;5085087;28;20196;-84
2023/12/25 03:39:09;;;;;;;1.40;1.10;;;12.20;73.70;;;;;;5087377;28;20533;-84
2023/12/25 03:41:35;;;;;;;1.63;0.97;;;12.30;73.60;;;;;;5084217;28;20211;-84
2023/12/25 03:44:01;;;;;;;1.20;0.90;;;12.20;73.10;;;;;;5095690;28;20941;-84
2023/12/25 03:46:26;;;;;;;1.00;0.90;;;12.20;73.30;;;;;;5081943;28;20218;-84
2023/12/25 03:48:52;;;;;;;1.40;1.00;;;12.20;73.10;;;;;;5095668;28;20172;-84
2023/12/25 03:51:17;;;;;;;1.50;0.97;;;12.10;72.90;;;;;;5104896;28;20184;-84
2023/12/25 03:53:43;;;;;;;1.23;1.00;;;12.10;73.10;;;;;;5095245;28;20530;-84
2023/12/25 03:56:09;;;;;;;1.63;1.37;;;12.10;73.10;;;;;;5080312;27;20180;-84
2023/12/25 03:58:35;;;;;;;3.93;1.43;;;12.10;73.00;;;;;;5098058;28;20199;-84
2023/12/25 04:01:01;;;;;;;1.40;1.23;;;12.20;73.20;;;;;;5089270;28;20253;-85
2023/12/25 04:03:26;;;;;;;2.37;1.30;;;12.00;72.90;;;;;;5106040;28;20208;-84
2023/12/25 04:05:52;;;;;;;3.83;1.30;;;12.00;72.90;;;;;;5107524;28;20176;-84
2023/12/25 04:08:17;;;;;;;2.47;1.40;;;12.00;73.00;;;;;;5090696;28;20222;-84
2023/12/25 04:10:43;;;;;;;3.07;1.40;;;12.00;73.00;;;;;;5082136;28;20183;-84
2023/12/25 04:13:09;;;;;;;2.33;1.20;;;12.00;72.70;;;;;;5089336;28;20598;-84
2023/12/25 04:15:34;;;;;;;4.83;1.67;;;12.00;72.70;;;;;;5090410;28;20178;-84
2023/12/25 04:18:00;;;;;;;3.80;1.60;;;12.00;72.60;;;;;;5092064;28;20196;-84
2023/12/25 04:20:26;;;;;;;2.60;1.47;;;11.90;72.00;;;;;;5106724;28;20194;-84
2023/12/25 04:22:51;;;;;;;2.17;1.50;;;11.90;71.90;;;;;;5093493;28;20254;-84
2023/12/25 04:25:17;;;;;;;2.33;1.27;;;11.80;71.90;;;;;;5087817;28;20199;-84
2023/12/25 04:27:42;;;;;;;3.00;1.20;;;11.80;72.00;;;;;;5094761;28;20267;-85
2023/12/25 04:30:08;;;;;;;2.33;1.30;;;11.90;72.10;;;;;;5092470;28;20713;-84
2023/12/25 04:32:34;;;;;;;2.70;1.30;;;11.80;72.00;;;;;;5089250;28;20208;-84
2023/12/25 04:34:59;;;;;;;2.10;1.30;;;11.90;72.00;;;;;;5112610;28;20187;-84
2023/12/25 04:37:25;;;;;;;4.00;1.50;;;11.90;72.00;;;;;;5101581;28;20229;-84
2023/12/25 04:39:51;;;;;;;3.37;1.53;;;11.90;71.80;;;;;;5111726;27;20186;-84
2023/12/25 04:42:17;;;;;;;1.83;1.20;;;11.80;71.60;;;;;;5109506;28;20349;-84
2023/12/25 04:44:43;;;;;;;4.50;1.60;;;11.90;72.00;;;;;;5089565;28;20278;-84
2023/12/25 04:47:08;;;;;;;4.40;1.20;;;12.00;72.00;;;;;;5111828;28;20183;-84
2023/12/25 04:49:34;;;;;;;3.00;1.60;;;11.90;71.70;;;;;;5093177;28;20357;-84
2023/12/25 04:52:00;;;;;;;2.60;1.20;;;11.90;71.80;;;;;;5091557;28;20645;-84
2023/12/25 04:54:25;;;;;;;3.33;1.27;;;11.90;71.70;;;;;;5089532;28;20191;-84
2023/12/25 04:56:53;;;;;;;2.43;1.43;;;11.90;71.70;;;;;;5081949;28;20258;-84
2023/12/25 04:59:21;;;;;;;4.30;1.50;;;11.90;71.70;;;;;;5110154;28;20558;-84
2023/12/25 05:01:51;;;;;;;3.27;1.30;;;11.90;71.90;;;;;;5111009;27;20211;-84
2023/12/25 05:04:16;;;;;;;3.93;1.67;;;11.90;71.70;;;;;;5089295;28;20324;-84
2023/12/25 05:06:54;;;;;;;3.77;1.50;;;11.90;71.80;;;;;;5091217;28;20267;-84
2023/12/25 05:09:20;;;;;;;1.70;1.40;;;11.90;71.80;;;;;;5086772;28;20213;-84
2023/12/25 05:11:45;;;;;;;3.70;1.60;;;11.90;72.00;;;;;;5108068;28;20224;-84
2023/12/25 05:14:11;;;;;;;2.43;1.40;;;11.90;72.10;;;;;;5084366;28;20641;-84
2023/12/25 05:16:36;;;;;;;1.93;1.37;;;11.90;72.20;;;;;;5087124;28;20213;-84
2023/12/25 05:19:02;;;;;;;4.07;1.70;;;11.90;72.10;;;;;;5089136;28;20541;-84
2023/12/25 05:21:28;;;;;;;3.60;1.50;;;11.90;72.00;;;;;;5107654;28;20204;-84
2023/12/25 05:23:53;;;;;;;1.27;1.10;;;11.90;72.10;;;;;;5087641;28;20188;-84
2023/12/25 05:26:20;;;;;;;4.90;1.60;;;11.90;72.00;;;;;;5089069;28;20180;-84
2023/12/25 05:28:46;;;;;;;6.57;1.77;;;12.00;72.50;;;;;;5088578;28;20633;-84
2023/12/25 05:31:13;;;;;;;2.87;1.30;;;12.00;72.20;;;;;;5099013;28;20191;-84
2023/12/25 05:33:39;;;;;;;2.50;1.47;;;12.00;72.20;;;;;;5084596;28;20592;-84
2023/12/25 05:36:04;;;;;;;3.27;1.93;;;12.00;72.00;;;;;;5103219;28;20196;-84
2023/12/25 05:38:30;;;;;;;3.20;1.63;;;12.00;72.10;;;;;;5109365;28;20239;-83
2023/12/25 05:40:56;;;;;;;5.20;1.80;;;12.00;71.90;;;;;;5102114;28;20695;-84
2023/12/25 05:43:21;;;;;;;3.70;1.80;;;12.00;72.00;;;;;;5081579;28;20237;-84
2023/12/25 05:45:47;;;;;;;1.43;1.20;;;12.00;72.10;;;;;;5088678;28;20177;-82
2023/12/25 05:48:13;;;;;;;3.50;1.50;;;12.00;72.20;;;;;;5088793;28;20589;-82
2023/12/25 05:50:38;;;;;;;2.10;1.30;;;12.00;72.20;;;;;;5089135;28;20187;-82
2023/12/25 05:53:04;;;;;;;1.97;1.20;;;12.00;72.20;;;;;;5102914;28;20646;-82
2023/12/25 05:55:29;;;;;;;2.53;1.43;;;11.90;72.00;;;;;;5088224;28;20180;-83
2023/12/25 05:57:55;;;;;;;2.50;1.33;;;11.90;72.10;;;;;;5085770;28;20664;-84
2023/12/25 06:00:20;;;;;;;3.70;1.67;;;11.90;72.20;;;;;;5080927;28;20183;-83
2023/12/25 06:02:46;;;;;;;2.83;1.90;;;11.90;72.20;;;;;;5087770;28;20230;-83
2023/12/25 06:05:12;;;;;;;5.50;1.73;;;12.00;72.30;;;;;;5088363;28;20188;-83
2023/12/25 06:07:38;;;;;;;2.77;1.60;;;12.00;72.20;;;;;;5115380;27;20176;-83
2023/12/25 06:10:04;;;;;;;3.40;1.40;;;12.00;72.00;;;;;;5085231;28;20183;-82
2023/12/25 06:12:29;;;;;;;3.20;1.43;;;12.00;72.10;;;;;;5101321;28;20224;-83
2023/12/25 06:14:55;;;;;;;2.40;1.50;;;12.00;72.20;;;;;;5087950;28;20175;-83
2023/12/25 06:17:20;;;;;;;3.53;1.70;;;12.00;72.10;;;;;;5108328;28;20190;-83
2023/12/25 06:19:46;;;;;;;3.17;1.70;;;12.00;71.80;;;;;;5090085;28;20837;-83
2023/12/25 06:22:12;;;;;;;3.57;1.57;;;12.00;71.80;;;;;;5092842;28;20214;-83
2023/12/25 06:24:37;;;;;;;3.20;1.67;;;12.00;71.30;;;;;;5083396;28;20191;-83
2023/12/25 06:27:03;;;;;;;2.10;1.60;;;12.00;71.30;;;;;;5100069;28;20258;-83
2023/12/25 06:29:29;;;;;;;5.27;1.97;;;11.90;71.70;;;;;;5078897;28;20726;-83
2023/12/25 06:31:54;;;;;;;2.37;1.53;;;11.90;70.90;;;;;;5084772;28;20187;-83
2023/12/25 06:34:20;;;;;;;2.93;1.60;;;12.00;70.90;;;;;;5087585;28;20207;-83
2023/12/25 06:36:45;;;;;;;2.80;1.83;;;12.00;71.00;;;;;;5083913;28;20187;-83
2023/12/25 06:39:11;;;;;;;3.50;1.90;;;12.00;70.50;;;;;;5086522;28;20184;-82
2023/12/25 06:41:37;;;;;;;5.07;1.83;;;12.00;70.30;;;;;;5091547;28;20689;-83
2023/12/25 06:44:02;;;;;;;2.37;1.63;;;12.00;71.10;;;;;;5087191;28;20195;-83
2023/12/25 06:46:28;;;;;;;4.70;1.73;;;12.00;70.10;;;;;;5093586;28;20686;-83
2023/12/25 06:48:54;;;;;;;5.50;1.80;;;12.00;70.20;;;;;;5106440;28;20178;-83
2023/12/25 06:51:19;;;;;;;4.60;1.90;;;12.00;70.00;;;;;;5099909;28;20191;-83
2023/12/25 06:53:45;;;;;;;3.90;1.80;;;12.00;69.80;;;;;;5083009;28;20186;-83
2023/12/25 06:56:11;;;;;;;4.80;1.83;;;12.00;70.40;;;;;;5097826;28;20207;-83
2023/12/25 06:59:20;;;;;;;4.43;1.70;;;12.10;69.40;;;;;;5101938;28;20185;-83
2023/12/25 07:01:45;;;;;;;5.10;1.90;;;12.00;69.70;;;;;;5080968;28;20303;-83
2023/12/25 07:04:11;;;;;;;3.03;1.30;;;12.00;69.50;;;;;;5103473;28;20262;-83
2023/12/25 07:06:37;;;;;;;3.17;1.70;;;12.10;70.00;;;;;;5082841;28;20184;-83
2023/12/25 07:09:03;;;;;;;4.07;1.50;;;12.20;69.90;;;;;;5090335;28;20180;-82
2023/12/25 07:11:28;;;;;;;3.43;1.90;;;12.20;69.60;;;;;;5102922;28;20220;-83
2023/12/25 07:13:56;;;;;;;3.60;1.50;;;12.20;69.30;;;;;;5090451;28;20184;-83
2023/12/25 07:16:22;;;;;;;5.30;1.50;;;12.20;69.00;;;;;;5090336;28;20617;-83
2023/12/25 07:18:50;;;;;;;5.17;1.90;;;12.30;69.00;;;;;;5088475;28;20205;-83
2023/12/25 07:21:15;;;;;;;3.47;1.67;;;12.20;68.80;;;;;;5083423;28;20207;-83
2023/12/25 07:23:41;;;;;;;5.03;2.00;;;12.10;68.30;;;;;;5106575;28;20184;-82
2023/12/25 07:26:07;;;;;;;4.83;1.80;;;12.20;68.70;;;;;;5082889;28;20202;-83
2023/12/25 07:28:33;;;;;;;4.80;2.00;;;12.20;68.50;;;;;;5082657;28;20240;-83
2023/12/25 07:31:00;;;;;;;4.70;2.13;;;12.20;68.10;;;;;;5104798;28;20188;-83
2023/12/25 07:33:26;;;;;;;4.13;2.03;;;12.20;67.80;;;;;;5109449;28;20183;-83
2023/12/25 07:35:52;;;;;;;3.33;1.83;;;12.20;67.90;;;;;;5108457;28;20240;-83
2023/12/25 07:38:18;;;;;;;5.53;1.73;;;12.20;67.80;;;;;;5090461;28;20236;-83
2023/12/25 07:40:44;;;;;;;5.57;2.07;;;12.20;67.80;;;;;;5108181;27;20177;-82
2023/12/25 07:43:10;;;;;;;3.30;1.77;;;12.20;67.60;;;;;;5089918;28;20184;-82
2023/12/25 07:45:36;;;;;;;4.90;1.90;;;12.30;67.60;;;;;;5111809;27;20521;-83
2023/12/25 07:48:02;;;;;;;6.47;2.23;;;12.20;67.20;;;;;;5095164;28;20555;-83
2023/12/25 07:50:28;;;;;;;4.77;1.80;;;12.30;67.50;;;;;;5083923;28;20183;-83
2023/12/25 07:52:53;;;;;;;4.23;2.20;;;12.30;67.20;;;;;;5082292;28;20188;-83
2023/12/25 07:55:19;;;;;;;5.27;1.90;;;12.30;67.30;;;;;;5092485;28;20208;-83
2023/12/25 07:57:44;;;;;;;5.07;2.13;;;12.30;67.10;;;;;;5115338;27;20246;-83
2023/12/25 08:00:11;;;;;;;6.37;2.20;;;12.30;67.00;;;;;;5115067;27;20176;-83
2023/12/25 08:02:36;;;;;;;7.07;2.20;;;12.20;66.70;;;;;;5115290;27;20593;-83
2023/12/25 08:05:02;;;;;;;6.20;2.07;;;12.30;67.00;;;;;;5107150;27;20177;-83
2023/12/25 08:07:28;;;;;;;6.97;2.13;;;12.30;67.00;;;;;;5114650;27;20538;-84
2023/12/25 08:09:54;;;;;;;4.97;2.20;;;12.30;66.90;;;;;;5102903;27;20179;-85
2023/12/25 08:12:19;;;;;;;5.03;2.03;;;12.40;67.00;;;;;;5092666;28;20323;-85
2023/12/25 08:14:45;;;;;;;3.93;2.13;;;12.30;66.80;;;;;;5081273;28;20184;-82
2023/12/25 08:17:10;;;;;;;7.40;2.57;;;12.20;66.40;;;;;;5090553;28;20665;-83
2023/12/25 08:19:36;;;;;;;6.30;2.33;;;12.30;67.00;;;;;;5087165;28;20551;-83
2023/12/25 08:22:02;;;;;;;6.03;1.93;;;12.30;67.10;;;;;;5091637;27;20565;-81
2023/12/25 08:24:27;;;;;;;7.13;2.33;;;12.30;67.20;;;;;;5104829;27;20188;-83
2023/12/25 08:26:53;;;;;;;5.77;2.17;;;12.30;67.20;;;;;;5090877;28;20187;-82
2023/12/25 08:29:19;;;;;;;3.77;2.07;;;12.50;67.60;;;;;;5111510;27;20629;-82
2023/12/25 08:31:45;;;;;;;4.23;2.00;;;12.40;67.60;;;;;;5108756;27;20184;-82
2023/12/25 08:34:10;;;;;;;5.00;1.93;;;12.40;67.40;;;;;;5091737;28;20202;-82
2023/12/25 08:36:36;;;;;;;4.83;2.13;;;12.50;67.50;;;;;;5086559;28;20765;-83
2023/12/25 08:39:01;;;;;;;6.67;2.20;;;12.40;67.10;;;;;;5090127;28;20188;-82
2023/12/25 08:41:27;;;;;;;5.47;2.27;;;12.40;67.10;;;;;;5093844;28;20367;-83
2023/12/25 08:43:53;;;;;;;3.37;2.13;;;12.40;66.90;;;;;;5085502;28;20185;-82
2023/12/25 08:46:18;;;;;;;6.23;2.17;;;12.40;67.10;;;;;;5089394;28;20270;-83
2023/12/25 08:48:44;;;;;;;5.00;2.30;;;12.40;67.20;;;;;;5080412;28;20203;-84
2023/12/25 08:51:10;;;;;;;5.93;2.13;;;12.60;67.00;;;;;;5095294;28;20188;-84
2023/12/25 08:53:35;;;;;;;3.03;2.00;;;12.50;66.70;;;;;;5083659;28;20187;-84
2023/12/25 08:56:01;;;;;;;7.70;2.20;;;12.50;66.80;;;;;;5086648;28;20211;-84
2023/12/25 08:58:27;;;;;;;5.03;1.90;;;12.60;66.40;;;;;;5108194;27;20252;-85
2023/12/25 09:00:53;;;;;;;4.70;2.20;;;12.50;66.10;;;;;;5082522;28;20184;-84
2023/12/25 09:03:18;;;;;;;6.03;1.80;;;12.50;66.10;;;;;;5088013;28;20541;-84
2023/12/25 09:05:44;;;;;;;5.97;2.43;;;12.60;66.30;;;;;;5090423;28;20654;-85
2023/12/25 09:08:11;;;;;;;7.47;2.37;;;12.60;66.10;;;;;;5106817;28;20637;-85
2023/12/25 09:10:37;;;;;;;4.43;1.90;;;12.70;66.10;;;;;;5088821;28;20660;-85
2023/12/25 09:13:03;;;;;;;7.20;2.40;;;12.70;66.10;;;;;;5087034;28;20187;-85
2023/12/25 09:15:28;;;;;;;5.40;2.20;;;12.70;66.00;;;;;;5085583;28;20188;-84
2023/12/25 09:17:55;;;;;;;6.10;2.30;;;12.70;65.80;;;;;;5092358;28;20195;-84
2023/12/25 09:20:21;;;;;;;4.40;2.30;;;12.70;65.40;;;;;;5091110;28;20233;-84
2023/12/25 09:22:47;;;;;;;7.07;2.20;;;12.70;65.40;;;;;;5088297;28;20212;-84
2023/12/25 09:25:13;;;;;;;6.47;2.80;;;12.70;65.50;;;;;;5106775;28;20179;-84
2023/12/25 09:27:38;;;;;;;4.23;2.00;;;12.80;65.40;;;;;;5109588;28;20206;-84
2023/12/25 09:30:05;;;;;;;4.70;2.00;;;12.80;65.00;;;;;;5109622;28;20179;-84
2023/12/25 09:32:31;;;;;;;4.57;2.17;;;12.80;65.00;;;;;;5108886;28;20188;-84
2023/12/25 09:34:56;;;;;;;4.80;2.07;;;12.80;65.10;;;;;;5092726;28;20258;-85
2023/12/25 09:37:25;;;;;;;6.60;2.40;;;12.80;64.90;;;;;;5090367;28;20219;-83
2023/12/25 09:39:51;;;;;;;6.27;2.50;;;12.80;65.00;;;;;;5087757;28;20188;-84
2023/12/25 09:42:17;;;;;;;3.93;2.10;;;12.90;65.20;;;;;;5091814;28;20208;-84
2023/12/25 09:44:44;;;;;;;6.63;2.50;;;12.80;64.70;;;;;;5108999;28;20194;-84
2023/12/25 09:47:10;;;;;;;6.60;2.30;;;12.80;64.60;;;;;;5092653;28;20172;-84
2023/12/25 09:49:38;;;;;;;3.87;2.27;;;12.80;64.90;;;;;;5108676;28;20190;-85
2023/12/25 09:52:04;;;;;;;5.67;2.20;;;12.80;65.00;;;;;;5086323;28;20183;-84
2023/12/25 09:54:29;;;;;;;4.30;2.07;;;12.90;65.00;;;;;;5090620;28;20525;-84
2023/12/25 09:57:00;;;;;;;5.20;2.53;;;12.90;65.00;;;;;;5092126;28;20186;-85
2023/12/25 09:59:28;;;;;;;7.30;2.80;;;12.90;64.60;;;;;;5089372;28;20633;-84
2023/12/25 10:01:55;;;;;;;4.43;2.17;;;12.90;65.40;;;;;;5087224;28;20212;-84
2023/12/25 10:04:22;;;;;;;3.50;1.90;;;12.80;64.10;;;;;;5091233;28;20198;-84
2023/12/25 10:06:48;;;;;;;5.77;2.43;;;12.80;64.10;;;;;;5089622;28;20582;-85
2023/12/25 10:09:13;;;;;;;4.87;2.33;;;12.80;64.20;;;;;;5089641;28;20272;-85
2023/12/25 10:11:39;;;;;;;5.57;2.40;;;12.80;64.40;;;;;;5090296;28;20229;-84
2023/12/25 10:14:05;;;;;;;4.83;2.53;;;12.90;64.70;;;;;;5110528;28;20238;-84
2023/12/25 10:16:30;;;;;;;4.20;2.13;;;12.90;64.90;;;;;;5085408;28;20263;-84
2023/12/25 10:18:56;;;;;;;5.07;2.37;;;12.90;64.60;;;;;;5091269;28;20183;-84
2023/12/25 10:21:21;;;;;;;6.70;2.13;;;12.90;64.50;;;;;;5091090;28;20245;-84
2023/12/25 10:23:48;;;;;;;5.63;2.10;;;12.90;64.20;;;;;;5108133;28;20191;-84
2023/12/25 10:26:25;;;;;;;4.70;2.50;;;12.80;63.80;;;;;;5110317;28;20182;-84
2023/12/25 10:28:51;;;;;;;4.67;2.13;;;12.80;63.80;;;;;;5110415;28;20180;-84
2023/12/25 10:31:26;;;;;;;6.30;2.50;;;12.80;64.10;;;;;;5104379;28;20186;-84
2023/12/25 10:33:59;;;;;;;4.37;2.03;;;12.80;64.30;;;;;;5091752;28;20183;-85
2023/12/25 10:36:26;;;;;;;5.47;2.10;;;12.80;64.40;;;;;;5090328;28;20219;-84
2023/12/25 10:38:52;;;;;;;7.30;2.37;;;12.90;64.80;;;;;;5091047;28;20184;-84
2023/12/25 10:41:27;;;;;;;4.10;2.20;;;12.80;64.70;;;;;;5091636;28;20254;-84
2023/12/25 10:44:00;;;;;;;6.17;2.57;;;12.80;64.90;;;;;;5091303;28;20549;-84
2023/12/25 10:46:27;;;;;;;4.27;2.20;;;12.80;64.80;;;;;;5085490;28;20180;-84
2023/12/25 10:48:55;;;;;;;7.40;2.73;;;12.90;65.20;;;;;;5090579;28;20186;-84
2023/12/25 10:51:27;;;;;;;3.87;2.03;;;12.90;64.90;;;;;;5093767;28;20239;-84
2023/12/25 10:53:57;;;;;;;4.00;2.20;;;12.90;64.70;;;;;;5108908;28;20565;-84
2023/12/25 10:56:24;;;;;;;5.67;2.60;;;12.90;64.40;;;;;;5109408;28;20176;-84
2023/12/25 10:58:51;;;;;;;6.37;2.40;;;12.80;64.20;;;;;;5109209;28;20184;-84
2023/12/25 11:01:25;;;;;;;5.60;2.77;;;12.80;64.20;;;;;;5090951;28;20212;-84
2023/12/25 11:03:54;;;;;;;4.10;2.50;;;12.90;64.10;;;;;;5108541;28;20653;-84
2023/12/25 11:06:21;;;;;;;7.00;2.43;;;12.80;64.50;;;;;;5106974;28;20686;-84
2023/12/25 11:08:48;;;;;;;6.10;2.80;;;12.80;64.30;;;;;;5089380;28;20270;-84
2023/12/25 11:11:14;;;;;;;4.67;2.50;;;12.80;64.40;;;;;;5091243;28;20713;-84
2023/12/25 11:13:40;;;;;;;6.57;2.43;;;12.80;64.20;;;;;;5090277;28;20594;-84
2023/12/25 11:16:07;;;;;;;6.23;2.60;;;12.80;64.60;;;;;;5089676;28;20659;-85
2023/12/25 11:18:37;;;;;;;6.87;2.30;;;12.80;64.70;;;;;;5093623;28;20184;-84
2023/12/25 11:21:09;;;;;;;5.27;2.50;;;12.80;64.80;;;;;;5113240;28;20595;-84
2023/12/25 11:23:37;;;;;;;4.53;2.40;;;12.80;65.00;;;;;;5093483;28;20206;-84
2023/12/25 11:26:07;;;;;;;5.07;2.67;;;12.80;65.30;;;;;;5093402;28;20590;-84
2023/12/25 11:28:36;;;;;;;4.70;2.80;;;12.90;65.40;;;;;;5111425;28;20179;-84
2023/12/25 11:31:02;;;;;;;4.47;2.60;;;13.00;65.40;;;;;;5090265;28;20578;-84
2023/12/25 11:33:28;;;;;;;4.73;2.50;;;12.90;65.10;;;;;;5088474;28;20177;-84
2023/12/25 11:35:55;;;;;;;4.77;2.77;;;13.00;65.20;;;;;;5090790;28;20179;-84
2023/12/25 11:38:25;;;;;;;5.33;2.50;;;12.90;64.50;;;;;;5114086;28;20700;-84
2023/12/25 11:40:51;;;;;;;6.47;2.80;;;12.90;64.60;;;;;;5112076;28;20263;-83
2023/12/25 11:43:20;;;;;;;5.20;2.70;;;12.80;64.40;;;;;;5089828;28;20333;-84
2023/12/25 11:45:50;;;;;;;6.20;3.00;;;12.90;64.70;;;;;;5093718;28;20605;-84
2023/12/25 11:48:15;;;;;;;4.63;2.93;;;12.90;64.70;;;;;;5108546;28;20183;-84
2023/12/25 11:50:45;;;;;;;5.33;2.73;;;12.90;64.60;;;;;;5091369;28;20184;-85
2023/12/25 11:53:36;;;;;;;4.40;2.50;;;13.00;64.20;;;;;;5095161;28;20179;-84
2023/12/25 11:56:02;;;;;;;4.60;2.73;;;12.90;64.00;;;;;;5091974;28;20183;-84
2023/12/25 11:58:30;;;;;;;4.47;2.37;;;12.90;63.80;;;;;;5092656;28;20691;-84
2023/12/25 12:00:56;;;;;;;6.43;2.47;;;13.00;63.70;;;;;;5093111;28;20213;-84
2023/12/25 12:03:21;;;;;;;4.83;2.20;;;13.00;63.40;;;;;;5090774;28;20176;-84
2023/12/25 12:05:47;;;;;;;3.20;2.10;;;13.10;63.40;;;;;;5091377;28;20184;-84
2023/12/25 12:08:13;;;;;;;5.13;2.40;;;13.00;63.10;;;;;;5112980;28;20629;-85
2023/12/25 12:10:38;;;;;;;3.87;1.87;;;13.00;62.70;;;;;;5108219;28;20179;-84
2023/12/25 12:13:04;;;;;;;5.17;1.93;;;12.80;61.40;;;;;;5091968;28;20191;-84
2023/12/25 12:15:30;;;;;;;4.43;2.07;;;12.50;62.00;;;;;;5088741;28;20188;-84
2023/12/25 12:17:56;;;;;;;5.40;2.13;;;12.20;62.70;;;;;;5109816;28;20187;-84
2023/12/25 12:20:22;;;;;;;5.23;2.53;;;12.00;63.60;;;;;;5094308;28;20203;-84
2023/12/25 12:22:48;;;;;;;6.83;2.57;;;12.00;64.40;;;;;;5092785;28;20761;-84
2023/12/25 12:25:16;;;;;;;6.73;3.10;;;11.80;64.10;;;;;;5088338;28;20195;-84
2023/12/25 12:27:42;;;;;;;6.63;3.50;;;11.60;64.60;;;;;;5108178;28;20186;-84
2023/12/25 12:30:09;;;;;;;5.87;3.43;;;11.60;65.30;;;;;;5093822;28;20175;-84
2023/12/25 12:32:35;;;;;;;5.50;3.10;;;11.50;65.70;;;;;;5110166;28;20176;-84
2023/12/25 12:35:02;;;;;;;7.70;3.33;;;11.40;66.30;;;;;;5093968;28;20164;-84
2023/12/25 12:37:29;;;;;;;3.87;2.57;;;11.40;66.60;;;;;;5092729;28;20194;-84
2023/12/25 12:40:02;;;;;;;3.63;2.37;;;11.50;66.90;;;;;;5092950;28;20196;-84
2023/12/25 12:42:30;;;;;;;8.37;4.73;;;11.40;67.00;;;;;;5088319;28;20204;-84